createdAt,value
2023-02-07T00:00:21.643Z,-3.61
2023-02-07T00:00:53.993Z,-3.61
2023-02-07T00:01:27.723Z,-3.61
2023-02-07T00:02:00.039Z,-3.62
2023-02-07T00:02:32.454Z,-3.62
2023-02-07T00:03:04.941Z,-3.62
2023-02-07T00:03:38.224Z,-3.63
2023-02-07T00:04:10.683Z,-3.64
2023-02-07T00:04:42.982Z,-3.65
2023-02-07T00:05:16.488Z,-3.66
2023-02-07T00:05:48.807Z,-3.67
2023-02-07T00:06:28.669Z,-3.67
2023-02-07T00:07:00.955Z,-3.68
2023-02-07T00:07:33.267Z,-3.69
2023-02-07T00:08:06.937Z,-3.69
2023-02-07T00:08:40.563Z,-3.69
2023-02-07T00:09:13.060Z,-3.69
2023-02-07T00:09:45.382Z,-3.70
2023-02-07T00:10:17.722Z,-3.70
2023-02-07T00:10:50.048Z,-3.70
2023-02-07T00:11:23.748Z,-3.71
2023-02-07T00:11:56.100Z,-3.71
2023-02-07T00:12:28.374Z,-3.71
2023-02-07T00:13:00.824Z,-3.71
2023-02-07T00:13:33.170Z,-3.71
2023-02-07T00:14:05.504Z,-3.71
2023-02-07T00:14:37.870Z,-3.72
2023-02-07T00:15:10.450Z,-3.72
2023-02-07T00:15:42.733Z,-3.73
2023-02-07T00:16:15.312Z,-3.73
2023-02-07T00:16:47.770Z,-3.73
2023-02-07T00:17:20.164Z,-3.74
2023-02-07T00:17:52.478Z,-3.75
2023-02-07T00:18:25.148Z,-3.75
2023-02-07T00:19:00.044Z,-3.75
2023-02-07T00:19:32.584Z,-3.76
2023-02-07T00:20:05.854Z,-3.76
2023-02-07T00:20:38.170Z,-3.76
2023-02-07T00:21:14.294Z,-3.76
2023-02-07T00:21:46.586Z,-3.76
2023-02-07T00:22:18.857Z,-3.76
2023-02-07T00:22:51.698Z,-3.76
2023-02-07T00:23:24.020Z,-3.77
2023-02-07T00:23:57.219Z,-3.77
2023-02-07T00:24:29.610Z,-3.76
2023-02-07T00:25:01.906Z,-3.76
2023-02-07T00:25:34.211Z,-3.77
2023-02-07T00:26:07.966Z,-3.78
2023-02-07T00:26:40.251Z,-3.78
2023-02-07T00:27:12.662Z,-3.78
2023-02-07T00:27:45.067Z,-3.78
2023-02-07T00:28:17.510Z,-3.78
2023-02-07T00:28:50.997Z,-3.78
2023-02-07T00:29:23.404Z,-3.79
2023-02-07T00:29:55.705Z,-3.79
2023-02-07T00:30:28.152Z,-3.78
2023-02-07T00:31:10.664Z,-3.78
2023-02-07T00:31:43.262Z,-3.79
2023-02-07T00:32:16.246Z,-3.79
2023-02-07T00:32:48.574Z,-3.79
2023-02-07T00:33:20.934Z,-3.79
2023-02-07T00:33:56.699Z,-3.80
2023-02-07T00:34:29.065Z,-3.80
2023-02-07T00:35:03.644Z,-3.80
2023-02-07T00:35:36.300Z,-3.78
2023-02-07T00:36:13.110Z,-3.78
2023-02-07T00:36:45.471Z,-3.78
2023-02-07T00:37:18.131Z,-3.77
2023-02-07T00:37:50.727Z,-3.77
2023-02-07T00:38:23.029Z,-3.77
2023-02-07T00:39:04.772Z,-3.78
2023-02-07T00:39:38.430Z,-3.77
2023-02-07T00:40:10.870Z,-3.77
2023-02-07T00:40:43.141Z,-3.77
2023-02-07T00:41:18.675Z,-3.77
2023-02-07T00:41:51.111Z,-3.78
2023-02-07T00:42:23.408Z,-3.79
2023-02-07T00:42:55.772Z,-3.80
2023-02-07T00:43:32.378Z,-3.80
2023-02-07T00:44:05.296Z,-3.80
2023-02-07T00:44:37.639Z,-3.80
2023-02-07T00:45:09.926Z,-3.81
2023-02-07T00:45:42.246Z,-3.81
2023-02-07T00:46:15.840Z,-3.82
2023-02-07T00:46:48.477Z,-3.83
2023-02-07T00:47:20.794Z,-3.84
2023-02-07T00:47:53.091Z,-3.84
2023-02-07T00:48:26.639Z,-3.85
2023-02-07T00:48:59.034Z,-3.85
2023-02-07T00:49:31.375Z,-3.86
2023-02-07T00:50:03.817Z,-3.87
2023-02-07T00:50:36.179Z,-3.89
2023-02-07T00:51:08.749Z,-3.89
2023-02-07T00:51:41.051Z,-3.90
2023-02-07T00:52:13.365Z,-3.91
2023-02-07T00:52:45.638Z,-3.92
2023-02-07T00:53:17.954Z,-3.92
2023-02-07T00:53:50.267Z,-3.93
2023-02-07T00:54:22.626Z,-3.93
2023-02-07T00:54:54.931Z,-3.93
2023-02-07T00:55:27.249Z,-3.94
2023-02-07T00:55:59.825Z,-3.94
2023-02-07T00:56:33.678Z,-3.94
2023-02-07T00:57:06.012Z,-3.95
2023-02-07T00:57:38.320Z,-3.95
2023-02-07T00:58:10.623Z,-3.96
2023-02-07T00:58:42.945Z,-3.96
2023-02-07T00:59:15.269Z,-3.96
2023-02-07T00:59:47.561Z,-3.97
2023-02-07T01:00:19.994Z,-3.97
2023-02-07T01:00:52.785Z,-3.98
2023-02-07T01:01:25.580Z,-3.99
2023-02-07T01:01:57.864Z,-3.99
2023-02-07T01:02:30.140Z,-3.99
2023-02-07T01:03:02.592Z,-4.00
2023-02-07T01:03:34.874Z,-4.01
2023-02-07T01:04:07.223Z,-4.01
2023-02-07T01:04:39.633Z,-4.02
2023-02-07T01:05:12.006Z,-4.03
2023-02-07T01:05:45.845Z,-4.03
2023-02-07T01:06:18.224Z,-4.04
2023-02-07T01:06:50.510Z,-4.05
2023-02-07T01:07:22.973Z,-4.05
2023-02-07T01:07:55.321Z,-4.06
2023-02-07T01:08:27.784Z,-4.07
2023-02-07T01:09:01.916Z,-4.08
2023-02-07T01:09:34.329Z,-4.09
2023-02-07T01:10:07.025Z,-4.10
2023-02-07T01:10:41.482Z,-4.11
2023-02-07T01:11:16.623Z,-4.11
2023-02-07T01:11:49.033Z,-4.13
2023-02-07T01:12:21.370Z,-4.13
2023-02-07T01:12:53.679Z,-4.14
2023-02-07T01:13:26.008Z,-4.14
2023-02-07T01:14:00.904Z,-4.14
2023-02-07T01:14:33.207Z,-4.15
2023-02-07T01:15:07.361Z,-4.16
2023-02-07T01:15:42.832Z,-4.16
2023-02-07T01:16:56.935Z,-4.16
2023-02-07T01:17:29.415Z,-4.17
2023-02-07T01:18:01.713Z,-4.18
2023-02-07T01:18:34.010Z,-4.19
2023-02-07T01:19:08.967Z,-4.20
2023-02-07T01:19:41.255Z,-4.21
2023-02-07T01:20:13.837Z,-4.21
2023-02-07T01:20:46.284Z,-4.21
2023-02-07T01:21:24.690Z,-4.21
2023-02-07T01:21:59.270Z,-4.21
2023-02-07T01:22:31.580Z,-4.22
2023-02-07T01:23:05.619Z,-4.22
2023-02-07T01:23:37.893Z,-4.23
2023-02-07T01:24:10.539Z,-4.23
2023-02-07T01:24:42.972Z,-4.24
2023-02-07T01:25:15.335Z,-4.24
2023-02-07T01:25:47.651Z,-4.24
2023-02-07T01:26:19.945Z,-4.24
2023-02-07T01:26:52.225Z,-4.24
2023-02-07T01:27:24.872Z,-4.24
2023-02-07T01:27:57.271Z,-4.23
2023-02-07T01:28:29.853Z,-4.23
2023-02-07T01:29:02.596Z,-4.24
2023-02-07T01:29:34.884Z,-4.24
2023-02-07T01:30:07.578Z,-4.24
2023-02-07T01:30:41.625Z,-4.24
2023-02-07T01:31:14.404Z,-4.25
2023-02-07T01:31:46.813Z,-4.26
2023-02-07T01:32:19.151Z,-4.26
2023-02-07T01:32:51.500Z,-4.26
2023-02-07T01:33:23.814Z,-4.27
2023-02-07T01:33:58.430Z,-4.28
2023-02-07T01:34:30.774Z,-4.28
2023-02-07T01:35:03.273Z,-4.28
2023-02-07T01:35:37.833Z,-4.28
2023-02-07T01:36:13.482Z,-4.29
2023-02-07T01:36:45.951Z,-4.30
2023-02-07T01:37:18.272Z,-4.30
2023-02-07T01:37:50.573Z,-4.31
2023-02-07T01:38:22.870Z,-4.31
2023-02-07T01:38:56.034Z,-4.32
2023-02-07T01:39:28.450Z,-4.33
2023-02-07T01:40:01.002Z,-4.33
2023-02-07T01:40:38.051Z,-4.34
2023-02-07T01:41:12.956Z,-4.34
2023-02-07T01:41:45.275Z,-4.34
2023-02-07T01:42:18.259Z,-4.35
2023-02-07T01:42:50.605Z,-4.35
2023-02-07T01:43:25.352Z,-4.36
2023-02-07T01:44:02.159Z,-4.36
2023-02-07T01:44:37.134Z,-4.36
2023-02-07T01:45:23.647Z,-4.36
2023-02-07T01:45:56.054Z,-4.36
2023-02-07T01:46:30.120Z,-4.36
2023-02-07T01:47:02.806Z,-4.36
2023-02-07T01:47:37.529Z,-4.37
2023-02-07T01:48:19.342Z,-4.36
2023-02-07T01:48:53.090Z,-4.36
2023-02-07T01:49:29.472Z,-4.36
2023-02-07T01:50:02.801Z,-4.37
2023-02-07T01:50:36.456Z,-4.37
2023-02-07T01:51:08.816Z,-4.37
2023-02-07T01:51:52.400Z,-4.38
2023-02-07T01:52:40.588Z,-4.39
2023-02-07T01:53:16.095Z,-4.40
2023-02-07T01:53:49.215Z,-4.41
2023-02-07T01:54:23.239Z,-4.42
2023-02-07T01:55:00.040Z,-4.42
2023-02-07T01:55:37.425Z,-4.43
2023-02-07T01:56:22.727Z,-4.45
2023-02-07T01:57:07.218Z,-4.46
2023-02-07T01:57:40.015Z,-4.47
2023-02-07T01:58:12.820Z,-4.47
2023-02-07T01:58:45.453Z,-4.47
2023-02-07T01:59:18.084Z,-4.47
2023-02-07T01:59:53.802Z,-4.48
2023-02-07T02:00:26.588Z,-4.48
2023-02-07T02:01:00.090Z,-4.49
2023-02-07T02:01:32.758Z,-4.49
2023-02-07T02:02:05.902Z,-4.49
2023-02-07T02:02:38.760Z,-4.49
2023-02-07T02:03:11.809Z,-4.50
2023-02-07T02:03:49.299Z,-4.50
2023-02-07T02:04:21.654Z,-4.50
2023-02-07T02:04:55.664Z,-4.50
2023-02-07T02:05:31.031Z,-4.50
2023-02-07T02:06:03.563Z,-4.49
2023-02-07T02:06:36.565Z,-4.50
2023-02-07T02:07:13.530Z,-4.50
2023-02-07T02:07:45.902Z,-4.51
2023-02-07T02:08:18.185Z,-4.51
2023-02-07T02:08:55.121Z,-4.51
2023-02-07T02:09:27.545Z,-4.51
2023-02-07T02:10:00.711Z,-4.51
2023-02-07T02:11:02.713Z,-4.51
2023-02-07T02:11:52.987Z,-4.51
2023-02-07T02:12:57.593Z,-4.50
2023-02-07T02:13:40.649Z,-4.51
2023-02-07T02:14:50.120Z,-4.50
2023-02-07T02:15:44.528Z,-4.51
2023-02-07T02:16:36.431Z,-4.51
2023-02-07T02:17:30.050Z,-4.50
2023-02-07T02:18:05.207Z,-4.49
2023-02-07T02:18:48.087Z,-4.50
2023-02-07T02:19:38.587Z,-4.50
2023-02-07T02:20:22.664Z,-4.50
2023-02-07T02:21:19.354Z,-4.49
2023-02-07T02:22:09.843Z,-4.49
2023-02-07T02:22:48.022Z,-4.50
2023-02-07T02:23:42.109Z,-4.50
2023-02-07T02:24:20.107Z,-4.51
2023-02-07T02:25:29.380Z,-4.51
2023-02-07T02:26:24.251Z,-4.53
2023-02-07T02:27:17.389Z,-4.54
2023-02-07T02:27:55.675Z,-4.55
2023-02-07T02:28:30.640Z,-4.55
2023-02-07T02:29:12.164Z,-4.55
2023-02-07T02:30:10.392Z,-4.56
2023-02-07T02:31:00.738Z,-4.57
2023-02-07T02:31:39.044Z,-4.57
2023-02-07T02:32:48.087Z,-4.58
2023-02-07T02:33:27.390Z,-4.59
2023-02-07T02:34:20.879Z,-4.59
2023-02-07T02:35:13.196Z,-4.59
2023-02-07T02:35:52.086Z,-4.59
2023-02-07T02:36:41.824Z,-4.60
2023-02-07T02:37:56.294Z,-4.61
2023-02-07T02:38:38.932Z,-4.61
2023-02-07T02:39:29.105Z,-4.61
2023-02-07T02:40:26.329Z,-4.61
2023-02-07T02:41:10.719Z,-4.62
2023-02-07T02:42:18.235Z,-4.63
2023-02-07T02:43:30.086Z,-4.64
2023-02-07T02:44:20.554Z,-4.65
2023-02-07T02:45:01.228Z,-4.66
2023-02-07T02:45:51.884Z,-4.66
2023-02-07T02:46:31.031Z,-4.68
2023-02-07T02:47:04.717Z,-4.69
2023-02-07T02:47:41.653Z,-4.70
2023-02-07T02:48:14.142Z,-4.71
2023-02-07T02:48:46.615Z,-4.72
2023-02-07T02:49:20.322Z,-4.73
2023-02-07T02:49:52.793Z,-4.74
2023-02-07T02:50:28.961Z,-4.75
2023-02-07T02:51:01.715Z,-4.76
2023-02-07T02:51:34.068Z,-4.76
2023-02-07T02:52:06.958Z,-4.78
2023-02-07T02:52:50.200Z,-4.79
2023-02-07T02:53:23.772Z,-4.80
2023-02-07T02:53:58.387Z,-4.81
2023-02-07T02:54:33.469Z,-4.82
2023-02-07T02:55:06.059Z,-4.83
2023-02-07T02:56:26.318Z,-4.84
2023-02-07T02:57:27.497Z,-4.85
2023-02-07T02:58:12.637Z,-4.88
2023-02-07T02:58:50.922Z,-4.89
2023-02-07T02:59:47.252Z,-4.91
2023-02-07T03:00:56.690Z,-4.94
2023-02-07T03:02:01.145Z,-4.97
2023-02-07T03:02:58.552Z,-4.99
2023-02-07T03:03:46.869Z,-5.02
2023-02-07T03:05:21.859Z,-5.04
2023-02-07T03:06:17.034Z,-5.09
2023-02-07T03:07:28.342Z,-5.11
2023-02-07T03:08:23.316Z,-5.15
2023-02-07T03:09:27.816Z,-5.17
2023-02-07T03:10:05.927Z,-5.21
2023-02-07T03:11:04.561Z,-5.22
2023-02-07T03:11:51.113Z,-5.25
2023-02-07T03:12:32.304Z,-5.27
2023-02-07T03:13:23.656Z,-5.28
2023-02-07T03:14:20.125Z,-5.29
2023-02-07T03:15:01.883Z,-5.30
2023-02-07T03:15:53.598Z,-5.31
2023-02-07T03:16:48.325Z,-5.33
2023-02-07T03:17:31.187Z,-5.34
2023-02-07T03:18:10.310Z,-5.36
2023-02-07T03:18:51.301Z,-5.38
2023-02-07T03:19:31.098Z,-5.39
2023-02-07T03:20:14.682Z,-5.41
2023-02-07T03:21:03.369Z,-5.45
2023-02-07T03:21:46.615Z,-5.48
2023-02-07T03:22:24.483Z,-5.50
2023-02-07T03:23:02.668Z,-5.51
2023-02-07T03:23:37.384Z,-5.52
2023-02-07T03:24:17.553Z,-5.53
2023-02-07T03:24:58.115Z,-5.54
2023-02-07T03:25:32.320Z,-5.55
2023-02-07T03:26:08.858Z,-5.55
2023-02-07T03:26:44.829Z,-5.55
2023-02-07T03:27:20.099Z,-5.56
2023-02-07T03:27:55.877Z,-5.57
2023-02-07T03:28:31.555Z,-5.57
2023-02-07T03:29:06.574Z,-5.57
2023-02-07T03:29:43.201Z,-5.57
2023-02-07T03:30:21.258Z,-5.57
2023-02-07T03:30:56.948Z,-5.56
2023-02-07T03:31:32.075Z,-5.56
2023-02-07T03:32:08.181Z,-5.57
2023-02-07T03:32:45.022Z,-5.58
2023-02-07T03:33:19.092Z,-5.59
2023-02-07T03:33:59.170Z,-5.59
2023-02-07T03:34:42.532Z,-5.59
2023-02-07T03:35:19.037Z,-5.59
2023-02-07T03:35:58.770Z,-5.59
2023-02-07T03:37:04.975Z,-5.59
2023-02-07T03:37:48.235Z,-5.58
2023-02-07T03:38:20.871Z,-5.57
2023-02-07T03:38:53.509Z,-5.57
2023-02-07T03:39:26.552Z,-5.57
2023-02-07T03:39:59.043Z,-5.56
2023-02-07T03:40:38.412Z,-5.56
2023-02-07T03:41:18.487Z,-5.55
2023-02-07T03:41:59.827Z,-5.55
2023-02-07T03:42:59.783Z,-5.55
2023-02-07T03:43:35.173Z,-5.55
2023-02-07T03:44:11.430Z,-5.55
2023-02-07T03:44:46.651Z,-5.55
2023-02-07T03:45:21.358Z,-5.55
2023-02-07T03:45:53.792Z,-5.55
2023-02-07T03:46:26.473Z,-5.55
2023-02-07T03:46:59.709Z,-5.55
2023-02-07T03:47:32.508Z,-5.55
2023-02-07T03:48:04.936Z,-5.55
2023-02-07T03:48:37.298Z,-5.55
2023-02-07T03:49:09.706Z,-5.55
2023-02-07T03:49:42.008Z,-5.54
2023-02-07T03:50:15.299Z,-5.54
2023-02-07T03:50:49.969Z,-5.55
2023-02-07T03:51:22.246Z,-5.55
2023-02-07T03:51:54.562Z,-5.56
2023-02-07T03:52:26.861Z,-5.56
2023-02-07T03:52:59.266Z,-5.57
2023-02-07T03:53:31.656Z,-5.58
2023-02-07T03:54:04.286Z,-5.59
2023-02-07T03:54:36.667Z,-5.60
2023-02-07T03:55:09.989Z,-5.61
2023-02-07T03:55:42.310Z,-5.61
2023-02-07T03:56:14.614Z,-5.60
2023-02-07T03:56:46.940Z,-5.60
2023-02-07T03:57:19.233Z,-5.59
2023-02-07T03:57:51.610Z,-5.60
2023-02-07T03:58:23.970Z,-5.61
2023-02-07T03:58:56.268Z,-5.62
2023-02-07T03:59:29.858Z,-5.63
2023-02-07T04:00:02.896Z,-5.63
2023-02-07T04:00:36.529Z,-5.64
2023-02-07T04:01:08.975Z,-5.63
2023-02-07T04:01:42.712Z,-5.63
2023-02-07T04:02:15.156Z,-5.61
2023-02-07T04:02:47.508Z,-5.61
2023-02-07T04:03:19.788Z,-5.61
2023-02-07T04:03:52.177Z,-5.60
2023-02-07T04:04:24.682Z,-5.59
2023-02-07T04:04:57.036Z,-5.59
2023-02-07T04:05:29.393Z,-5.59
2023-02-07T04:06:01.761Z,-5.59
2023-02-07T04:06:34.087Z,-5.58
2023-02-07T04:07:06.971Z,-5.58
2023-02-07T04:07:39.275Z,-5.57
2023-02-07T04:08:12.155Z,-5.57
2023-02-07T04:08:44.517Z,-5.56
2023-02-07T04:09:16.856Z,-5.56
2023-02-07T04:09:49.234Z,-5.55
2023-02-07T04:10:21.610Z,-5.54
2023-02-07T04:11:01.490Z,-5.53
2023-02-07T04:11:33.861Z,-5.51
2023-02-07T04:12:06.247Z,-5.50
2023-02-07T04:12:38.546Z,-5.49
2023-02-07T04:13:10.864Z,-5.49
2023-02-07T04:13:43.421Z,-5.49
2023-02-07T04:14:16.143Z,-5.48
2023-02-07T04:14:48.512Z,-5.48
2023-02-07T04:15:20.887Z,-5.47
2023-02-07T04:15:53.262Z,-5.47
2023-02-07T04:16:26.056Z,-5.47
2023-02-07T04:16:58.371Z,-5.47
2023-02-07T04:17:31.581Z,-5.47
2023-02-07T04:18:04.092Z,-5.45
2023-02-07T04:18:36.390Z,-5.43
2023-02-07T04:19:08.786Z,-5.42
2023-02-07T04:19:41.183Z,-5.41
2023-02-07T04:20:13.571Z,-5.41
2023-02-07T04:20:46.772Z,-5.40
2023-02-07T04:21:19.151Z,-5.40
2023-02-07T04:21:51.565Z,-5.39
2023-02-07T04:22:23.930Z,-5.39
2023-02-07T04:22:56.229Z,-5.38
2023-02-07T04:23:29.188Z,-5.36
2023-02-07T04:24:01.480Z,-5.36
2023-02-07T04:24:35.894Z,-5.35
2023-02-07T04:25:08.474Z,-5.35
2023-02-07T04:25:40.921Z,-5.34
2023-02-07T04:26:13.296Z,-5.34
2023-02-07T04:26:45.693Z,-5.33
2023-02-07T04:27:18.013Z,-5.32
2023-02-07T04:27:50.384Z,-5.32
2023-02-07T04:28:23.122Z,-5.31
2023-02-07T04:28:55.538Z,-5.30
2023-02-07T04:29:27.854Z,-5.29
2023-02-07T04:30:00.225Z,-5.29
2023-02-07T04:30:33.642Z,-5.29
2023-02-07T04:31:06.054Z,-5.28
2023-02-07T04:31:38.409Z,-5.27
2023-02-07T04:32:11.093Z,-5.27
2023-02-07T04:32:43.483Z,-5.26
2023-02-07T04:33:15.978Z,-5.26
2023-02-07T04:33:48.967Z,-5.25
2023-02-07T04:34:21.329Z,-5.24
2023-02-07T04:34:53.649Z,-5.23
2023-02-07T04:35:25.994Z,-5.21
2023-02-07T04:36:00.890Z,-5.19
2023-02-07T04:36:33.268Z,-5.18
2023-02-07T04:37:05.700Z,-5.18
2023-02-07T04:37:38.116Z,-5.18
2023-02-07T04:38:10.473Z,-5.18
2023-02-07T04:38:42.856Z,-5.17
2023-02-07T04:39:15.248Z,-5.15
2023-02-07T04:39:47.730Z,-5.14
2023-02-07T04:40:20.159Z,-5.14
2023-02-07T04:40:52.785Z,-5.14
2023-02-07T04:41:25.199Z,-5.14
2023-02-07T04:41:57.488Z,-5.14
2023-02-07T04:42:29.795Z,-5.14
2023-02-07T04:43:02.097Z,-5.13
2023-02-07T04:43:37.422Z,-5.13
2023-02-07T04:44:09.745Z,-5.13
2023-02-07T04:44:42.017Z,-5.12
2023-02-07T04:45:14.404Z,-5.11
2023-02-07T04:45:48.146Z,-5.11
2023-02-07T04:46:20.470Z,-5.11
2023-02-07T04:46:52.769Z,-5.11
2023-02-07T04:47:25.234Z,-5.11
2023-02-07T04:47:57.500Z,-5.11
2023-02-07T04:48:29.878Z,-5.11
2023-02-07T04:49:02.345Z,-5.11
2023-02-07T04:49:34.892Z,-5.11
2023-02-07T04:50:07.496Z,-5.11
2023-02-07T04:50:39.842Z,-5.11
2023-02-07T04:51:12.486Z,-5.11
2023-02-07T04:51:44.904Z,-5.11
2023-02-07T04:52:17.234Z,-5.12
2023-02-07T04:52:49.593Z,-5.13
2023-02-07T04:53:21.950Z,-5.13
2023-02-07T04:53:54.307Z,-5.13
2023-02-07T04:54:26.684Z,-5.13
2023-02-07T04:54:59.106Z,-5.13
2023-02-07T04:55:31.632Z,-5.13
2023-02-07T04:56:04.190Z,-5.13
2023-02-07T04:56:36.582Z,-5.13
2023-02-07T04:57:09.039Z,-5.12
2023-02-07T04:57:41.398Z,-5.11
2023-02-07T04:58:13.735Z,-5.11
2023-02-07T04:58:46.054Z,-5.11
2023-02-07T04:59:18.386Z,-5.11
2023-02-07T04:59:50.660Z,-5.11
2023-02-07T05:00:22.953Z,-5.11
2023-02-07T05:00:55.419Z,-5.12
2023-02-07T05:01:27.750Z,-5.12
2023-02-07T05:02:00.284Z,-5.12
2023-02-07T05:02:32.718Z,-5.12
2023-02-07T05:03:05.115Z,-5.12
2023-02-07T05:03:37.437Z,-5.13
2023-02-07T05:04:09.781Z,-5.13
2023-02-07T05:04:42.117Z,-5.13
2023-02-07T05:05:14.468Z,-5.13
2023-02-07T05:05:46.797Z,-5.13
2023-02-07T05:06:19.104Z,-5.13
2023-02-07T05:06:51.423Z,-5.13
2023-02-07T05:07:23.809Z,-5.13
2023-02-07T05:07:56.103Z,-5.13
2023-02-07T05:08:28.407Z,-5.13
2023-02-07T05:09:00.791Z,-5.12
2023-02-07T05:09:33.124Z,-5.12
2023-02-07T05:10:05.816Z,-5.12
2023-02-07T05:10:39.259Z,-5.12
2023-02-07T05:11:11.662Z,-5.13
2023-02-07T05:11:43.966Z,-5.13
2023-02-07T05:12:16.244Z,-5.13
2023-02-07T05:12:48.747Z,-5.13
2023-02-07T05:13:22.008Z,-5.13
2023-02-07T05:13:54.323Z,-5.13
2023-02-07T05:14:26.630Z,-5.14
2023-02-07T05:14:59.339Z,-5.14
2023-02-07T05:15:31.987Z,-5.15
2023-02-07T05:16:05.209Z,-5.16
2023-02-07T05:16:37.793Z,-5.17
2023-02-07T05:17:11.192Z,-5.18
2023-02-07T05:17:43.530Z,-5.19
2023-02-07T05:18:16.361Z,-5.20
2023-02-07T05:18:48.637Z,-5.21
2023-02-07T05:19:21.146Z,-5.21
2023-02-07T05:19:53.460Z,-5.22
2023-02-07T05:20:26.117Z,-5.23
2023-02-07T05:20:59.156Z,-5.23
2023-02-07T05:21:31.570Z,-5.23
2023-02-07T05:22:04.027Z,-5.24
2023-02-07T05:22:36.333Z,-5.25
2023-02-07T05:23:08.838Z,-5.25
2023-02-07T05:23:41.230Z,-5.26
2023-02-07T05:24:13.599Z,-5.26
2023-02-07T05:24:45.911Z,-5.26
2023-02-07T05:25:18.450Z,-5.26
2023-02-07T05:25:50.879Z,-5.26
2023-02-07T05:26:23.260Z,-5.26
2023-02-07T05:26:55.536Z,-5.27
2023-02-07T05:27:27.813Z,-5.26
2023-02-07T05:28:00.369Z,-5.27
2023-02-07T05:28:32.722Z,-5.27
2023-02-07T05:29:07.261Z,-5.27
2023-02-07T05:29:39.670Z,-5.27
2023-02-07T05:30:12.525Z,-5.28
2023-02-07T05:30:44.997Z,-5.27
2023-02-07T05:31:17.557Z,-5.26
2023-02-07T05:32:08.390Z,-5.25
2023-02-07T05:32:59.453Z,-5.24
2023-02-07T05:33:31.792Z,-5.24
2023-02-07T05:34:04.206Z,-5.23
2023-02-07T05:34:37.101Z,-5.23
2023-02-07T05:35:09.659Z,-5.22
2023-02-07T05:35:44.675Z,-5.22
2023-02-07T05:36:17.002Z,-5.22
2023-02-07T05:36:49.348Z,-5.22
2023-02-07T05:37:21.744Z,-5.22
2023-02-07T05:37:54.071Z,-5.23
2023-02-07T05:38:26.491Z,-5.23
2023-02-07T05:38:58.802Z,-5.24
2023-02-07T05:39:31.074Z,-5.24
2023-02-07T05:40:04.208Z,-5.23
2023-02-07T05:40:38.353Z,-5.22
2023-02-07T05:41:10.662Z,-5.22
2023-02-07T05:41:42.967Z,-5.22
2023-02-07T05:42:15.518Z,-5.22
2023-02-07T05:42:47.834Z,-5.22
2023-02-07T05:43:20.239Z,-5.22
2023-02-07T05:43:52.579Z,-5.22
2023-02-07T05:44:24.902Z,-5.22
2023-02-07T05:44:57.222Z,-5.22
2023-02-07T05:45:29.570Z,-5.22
2023-02-07T05:46:01.930Z,-5.22
2023-02-07T05:46:34.331Z,-5.22
2023-02-07T05:47:06.670Z,-5.22
2023-02-07T05:47:39.043Z,-5.22
2023-02-07T05:48:12.505Z,-5.22
2023-02-07T05:48:45.028Z,-5.22
2023-02-07T05:49:17.325Z,-5.22
2023-02-07T05:49:49.683Z,-5.23
2023-02-07T05:50:22.129Z,-5.24
2023-02-07T05:50:54.404Z,-5.23
2023-02-07T05:51:26.753Z,-5.22
2023-02-07T05:51:59.028Z,-5.22
2023-02-07T05:52:32.960Z,-5.22
2023-02-07T05:53:08.268Z,-5.22
2023-02-07T05:53:40.684Z,-5.22
2023-02-07T05:54:12.959Z,-5.22
2023-02-07T05:54:45.247Z,-5.22
2023-02-07T05:55:17.699Z,-5.23
2023-02-07T05:55:52.094Z,-5.24
2023-02-07T05:56:24.408Z,-5.24
2023-02-07T05:56:56.801Z,-5.24
2023-02-07T05:57:29.129Z,-5.24
2023-02-07T05:58:01.598Z,-5.24
2023-02-07T05:58:33.992Z,-5.25
2023-02-07T05:59:06.309Z,-5.25
2023-02-07T05:59:38.663Z,-5.26
2023-02-07T06:00:14.750Z,-5.27
2023-02-07T06:00:48.910Z,-5.28
2023-02-07T06:01:21.213Z,-5.28
2023-02-07T06:01:53.523Z,-5.28
2023-02-07T06:02:25.895Z,-5.28
2023-02-07T06:02:58.200Z,-5.28
2023-02-07T06:03:30.548Z,-5.28
2023-02-07T06:04:02.839Z,-5.28
2023-02-07T06:04:35.279Z,-5.28
2023-02-07T06:05:14.723Z,-5.29
2023-02-07T06:05:47.366Z,-5.29
2023-02-07T06:06:19.692Z,-5.29
2023-02-07T06:06:51.963Z,-5.28
2023-02-07T06:07:24.285Z,-5.28
2023-02-07T06:07:56.597Z,-5.29
2023-02-07T06:08:28.892Z,-5.29
2023-02-07T06:09:01.275Z,-5.30
2023-02-07T06:09:33.726Z,-5.29
2023-02-07T06:10:07.553Z,-5.28
2023-02-07T06:10:40.196Z,-5.28
2023-02-07T06:11:12.508Z,-5.29
2023-02-07T06:11:44.810Z,-5.30
2023-02-07T06:12:17.151Z,-5.30
2023-02-07T06:12:49.419Z,-5.30
2023-02-07T06:13:21.872Z,-5.29
2023-02-07T06:13:54.155Z,-5.28
2023-02-07T06:14:26.525Z,-5.28
2023-02-07T06:14:58.857Z,-5.28
2023-02-07T06:15:31.331Z,-5.28
2023-02-07T06:16:03.760Z,-5.28
2023-02-07T06:16:36.163Z,-5.30
2023-02-07T06:17:08.435Z,-5.30
2023-02-07T06:17:40.774Z,-5.30
2023-02-07T06:18:13.047Z,-5.30
2023-02-07T06:18:45.398Z,-5.28
2023-02-07T06:19:17.718Z,-5.26
2023-02-07T06:19:52.699Z,-5.26
2023-02-07T06:20:25.902Z,-5.26
2023-02-07T06:20:58.212Z,-5.26
2023-02-07T06:21:45.468Z,-5.25
2023-02-07T06:22:18.989Z,-5.24
2023-02-07T06:22:52.443Z,-5.23
2023-02-07T06:23:24.776Z,-5.23
2023-02-07T06:23:57.072Z,-5.22
2023-02-07T06:24:29.373Z,-5.22
2023-02-07T06:25:02.084Z,-5.22
2023-02-07T06:25:34.362Z,-5.21
2023-02-07T06:26:06.877Z,-5.20
2023-02-07T06:26:39.195Z,-5.20
2023-02-07T06:27:11.797Z,-5.20
2023-02-07T06:27:44.127Z,-5.20
2023-02-07T06:28:16.479Z,-5.19
2023-02-07T06:28:48.904Z,-5.18
2023-02-07T06:29:21.250Z,-5.18
2023-02-07T06:29:53.643Z,-5.17
2023-02-07T06:30:25.972Z,-5.17
2023-02-07T06:30:58.414Z,-5.18
2023-02-07T06:31:30.947Z,-5.18
2023-02-07T06:32:03.595Z,-5.18
2023-02-07T06:32:36.031Z,-5.18
2023-02-07T06:33:08.323Z,-5.18
2023-02-07T06:33:40.760Z,-5.18
2023-02-07T06:34:13.110Z,-5.19
2023-02-07T06:34:45.429Z,-5.20
2023-02-07T06:35:17.723Z,-5.21
2023-02-07T06:35:50.067Z,-5.22
2023-02-07T06:36:22.346Z,-5.24
2023-02-07T06:36:54.714Z,-5.26
2023-02-07T06:37:27.017Z,-5.27
2023-02-07T06:37:59.386Z,-5.29
2023-02-07T06:38:31.772Z,-5.29
2023-02-07T06:39:04.298Z,-5.30
2023-02-07T06:39:36.620Z,-5.32
2023-02-07T06:40:09.378Z,-5.32
2023-02-07T06:40:41.686Z,-5.33
2023-02-07T06:41:14.046Z,-5.34
2023-02-07T06:41:46.313Z,-5.35
2023-02-07T06:42:18.794Z,-5.36
2023-02-07T06:42:51.109Z,-5.37
2023-02-07T06:43:23.495Z,-5.38
2023-02-07T06:43:55.771Z,-5.39
2023-02-07T06:44:28.054Z,-5.39
2023-02-07T06:45:00.398Z,-5.39
2023-02-07T06:45:32.676Z,-5.40
2023-02-07T06:46:05.415Z,-5.40
2023-02-07T06:46:37.922Z,-5.40
2023-02-07T06:47:10.254Z,-5.41
2023-02-07T06:47:42.622Z,-5.41
2023-02-07T06:48:14.936Z,-5.42
2023-02-07T06:48:47.268Z,-5.43
2023-02-07T06:49:19.572Z,-5.44
2023-02-07T06:49:52.930Z,-5.44
2023-02-07T06:50:25.226Z,-5.46
2023-02-07T06:50:57.633Z,-5.47
2023-02-07T06:51:30.392Z,-5.48
2023-02-07T06:52:02.900Z,-5.49
2023-02-07T06:52:35.204Z,-5.50
2023-02-07T06:53:07.538Z,-5.50
2023-02-07T06:53:39.962Z,-5.51
2023-02-07T06:54:12.334Z,-5.53
2023-02-07T06:54:44.656Z,-5.53
2023-02-07T06:55:17.174Z,-5.54
2023-02-07T06:55:50.027Z,-5.54
2023-02-07T06:56:22.501Z,-5.55
2023-02-07T06:56:55.146Z,-5.56
2023-02-07T06:57:30.088Z,-5.56
2023-02-07T06:58:02.409Z,-5.57
2023-02-07T06:58:35.122Z,-5.58
2023-02-07T06:59:07.472Z,-5.58
2023-02-07T06:59:39.789Z,-5.59
2023-02-07T07:00:12.556Z,-5.60
2023-02-07T07:00:44.901Z,-5.61
2023-02-07T07:01:20.292Z,-5.61
2023-02-07T07:01:54.959Z,-5.61
2023-02-07T07:02:27.437Z,-5.62
2023-02-07T07:03:00.586Z,-5.63
2023-02-07T07:03:36.102Z,-5.63
2023-02-07T07:04:08.521Z,-5.63
2023-02-07T07:04:40.954Z,-5.64
2023-02-07T07:05:14.936Z,-5.64
2023-02-07T07:05:50.115Z,-5.64
2023-02-07T07:06:22.879Z,-5.63
2023-02-07T07:06:55.435Z,-5.62
2023-02-07T07:07:28.350Z,-5.59
2023-02-07T07:08:00.740Z,-5.55
2023-02-07T07:08:33.161Z,-5.49
2023-02-07T07:09:05.902Z,-5.42
2023-02-07T07:09:38.379Z,-5.32
2023-02-07T07:10:11.346Z,-5.23
2023-02-07T07:10:44.831Z,-5.10
2023-02-07T07:11:17.400Z,-4.87
2023-02-07T07:11:49.706Z,-4.64
2023-02-07T07:12:22.057Z,-4.42
2023-02-07T07:12:54.391Z,-4.19
2023-02-07T07:13:26.663Z,-3.96
2023-02-07T07:14:00.638Z,-3.72
2023-02-07T07:14:33.053Z,-3.48
2023-02-07T07:15:05.800Z,-3.38
2023-02-07T07:15:38.471Z,-3.32
2023-02-07T07:16:10.973Z,-3.10
2023-02-07T07:16:43.298Z,-2.92
2023-02-07T07:17:15.658Z,-2.85
2023-02-07T07:17:48.019Z,-2.57
2023-02-07T07:18:20.464Z,-2.27
2023-02-07T07:18:52.821Z,-2.05
2023-02-07T07:19:25.461Z,-1.92
2023-02-07T07:19:58.909Z,-1.84
2023-02-07T07:20:31.502Z,-1.71
2023-02-07T07:21:04.137Z,-1.57
2023-02-07T07:21:37.666Z,-1.46
2023-02-07T07:22:09.981Z,-1.34
2023-02-07T07:22:43.209Z,-1.16
2023-02-07T07:23:15.535Z,-1.04
2023-02-07T07:23:47.981Z,-0.94
2023-02-07T07:24:21.303Z,-0.75
2023-02-07T07:24:53.687Z,-0.53
2023-02-07T07:25:26.341Z,-0.38
2023-02-07T07:25:59.053Z,-0.32
2023-02-07T07:26:47.853Z,-0.13
2023-02-07T07:27:22.190Z,0.17
2023-02-07T07:27:54.671Z,0.25
2023-02-07T07:28:32.878Z,0.34
2023-02-07T07:29:07.181Z,0.45
2023-02-07T07:29:39.625Z,0.56
2023-02-07T07:30:15.061Z,0.62
2023-02-07T07:30:47.549Z,0.66
2023-02-07T07:31:19.934Z,0.72
2023-02-07T07:31:57.301Z,0.79
2023-02-07T07:32:34.285Z,0.92
2023-02-07T07:33:07.380Z,1.06
2023-02-07T07:33:39.929Z,1.13